sensor_id;sensor_type;location;lat;lon;timestamp;pressure;altitude;pressure_sealevel;temperature;humidity
31082;BME280;17737;52.586;13.284;2023-02-28T00:01:29;102687.81;;;0.32;75.01
31082;BME280;17737;52.586;13.284;2023-02-28T00:03:57;102678.41;;;0.23;74.88
31082;BME280;17737;52.586;13.284;2023-02-28T00:06:27;102687.28;;;0.22;75.83
31082;BME280;17737;52.586;13.284;2023-02-28T00:08:55;102681.19;;;0.20;75.86
31082;BME280;17737;52.586;13.284;2023-02-28T00:11:23;102685.66;;;0.18;76.02
31082;BME280;17737;52.586;13.284;2023-02-28T00:13:52;102683.88;;;0.19;75.55
31082;BME280;17737;52.586;13.284;2023-02-28T00:16:21;102685.72;;;0.17;75.70
31082;BME280;17737;52.586;13.284;2023-02-28T00:18:50;102685.50;;;-0.02;76.40
31082;BME280;17737;52.586;13.284;2023-02-28T00:21:19;102685.16;;;0.07;76.47
31082;BME280;17737;52.586;13.284;2023-02-28T00:23:48;102675.50;;;0.06;76.59
31082;BME280;17737;52.586;13.284;2023-02-28T00:26:17;102686.41;;;-0.03;76.57
31082;BME280;17737;52.586;13.284;2023-02-28T00:28:47;102682.00;;;-0.03;76.63
31082;BME280;17737;52.586;13.284;2023-02-28T00:31:15;102680.34;;;-0.07;76.77
31082;BME280;17737;52.586;13.284;2023-02-28T00:33:43;102691.78;;;-0.05;77.17
31082;BME280;17737;52.586;13.284;2023-02-28T00:36:11;102696.00;;;0.01;77.09
31082;BME280;17737;52.586;13.284;2023-02-28T00:38:40;102697.72;;;0.02;76.65
31082;BME280;17737;52.586;13.284;2023-02-28T00:41:09;102693.41;;;-0.01;77.02
31082;BME280;17737;52.586;13.284;2023-02-28T00:43:39;102692.56;;;-0.27;77.71
31082;BME280;17737;52.586;13.284;2023-02-28T00:46:07;102695.50;;;-0.35;78.07
31082;BME280;17737;52.586;13.284;2023-02-28T00:48:36;102702.72;;;-0.40;78.22
31082;BME280;17737;52.586;13.284;2023-02-28T00:51:04;102697.72;;;-0.49;78.87
31082;BME280;17737;52.586;13.284;2023-02-28T00:53:33;102700.31;;;-0.47;78.93
31082;BME280;17737;52.586;13.284;2023-02-28T00:56:01;102703.91;;;-0.48;79.13
31082;BME280;17737;52.586;13.284;2023-02-28T00:58:30;102696.19;;;-0.56;79.07
31082;BME280;17737;52.586;13.284;2023-02-28T01:00:58;102699.25;;;-0.42;79.04
31082;BME280;17737;52.586;13.284;2023-02-28T01:03:26;102702.66;;;-0.38;78.38
31082;BME280;17737;52.586;13.284;2023-02-28T01:05:54;102699.75;;;-0.57;79.30
31082;BME280;17737;52.586;13.284;2023-02-28T01:08:23;102694.31;;;-0.52;79.29
31082;BME280;17737;52.586;13.284;2023-02-28T01:10:52;102694.25;;;-0.51;79.33
31082;BME280;17737;52.586;13.284;2023-02-28T01:13:20;102688.59;;;-0.66;79.77
31082;BME280;17737;52.586;13.284;2023-02-28T01:15:52;102692.25;;;-0.44;79.28
31082;BME280;17737;52.586;13.284;2023-02-28T01:18:23;102695.66;;;-0.39;79.33
31082;BME280;17737;52.586;13.284;2023-02-28T01:20:51;102689.13;;;-0.29;78.89
31082;BME280;17737;52.586;13.284;2023-02-28T01:23:20;102692.78;;;-0.33;78.65
31082;BME280;17737;52.586;13.284;2023-02-28T01:25:49;102687.78;;;-0.42;79.09
31082;BME280;17737;52.586;13.284;2023-02-28T01:28:17;102685.59;;;-0.30;78.91
31082;BME280;17737;52.586;13.284;2023-02-28T01:30:48;102682.31;;;-0.36;78.78
31082;BME280;17737;52.586;13.284;2023-02-28T01:33:17;102674.47;;;-0.65;79.77
31082;BME280;17737;52.586;13.284;2023-02-28T01:35:45;102676.44;;;-0.72;80.51
31082;BME280;17737;52.586;13.284;2023-02-28T01:38:13;102678.53;;;-0.55;80.30
31082;BME280;17737;52.586;13.284;2023-02-28T01:40:48;102678.00;;;-0.40;79.41
31082;BME280;17737;52.586;13.284;2023-02-28T01:43:21;102675.59;;;-0.46;79.53
31082;BME280;17737;52.586;13.284;2023-02-28T01:45:53;102676.19;;;-0.64;80.11
31082;BME280;17737;52.586;13.284;2023-02-28T01:48:26;102675.53;;;-0.71;80.66
31082;BME280;17737;52.586;13.284;2023-02-28T01:51:01;102669.03;;;-0.88;81.42
31082;BME280;17737;52.586;13.284;2023-02-28T01:53:35;102674.84;;;-0.77;81.30
31082;BME280;17737;52.586;13.284;2023-02-28T01:56:12;102674.47;;;-0.65;80.73
31082;BME280;17737;52.586;13.284;2023-02-28T01:58:47;102671.94;;;-0.70;80.97
31082;BME280;17737;52.586;13.284;2023-02-28T02:01:15;102672.31;;;-0.54;80.48
31082;BME280;17737;52.586;13.284;2023-02-28T02:03:49;102671.41;;;-0.53;80.40
31082;BME280;17737;52.586;13.284;2023-02-28T02:06:22;102677.72;;;-0.57;80.25
31082;BME280;17737;52.586;13.284;2023-02-28T02:08:53;102672.31;;;-0.54;80.34
31082;BME280;17737;52.586;13.284;2023-02-28T02:11:22;102675.06;;;-0.57;80.10
31082;BME280;17737;52.586;13.284;2023-02-28T02:14:13;102681.28;;;-0.58;80.30
31082;BME280;17737;52.586;13.284;2023-02-28T02:20:16;102679.94;;;-0.71;80.42
31082;BME280;17737;52.586;13.284;2023-02-28T02:23:39;102671.34;;;-0.78;80.75
31082;BME280;17737;52.586;13.284;2023-02-28T02:26:47;102678.00;;;-0.66;80.81
31082;BME280;17737;52.586;13.284;2023-02-28T02:33:30;102666.31;;;-0.85;81.20
31082;BME280;17737;52.586;13.284;2023-02-28T02:36:23;102674.66;;;-0.71;80.54
31082;BME280;17737;52.586;13.284;2023-02-28T02:38:56;102675.31;;;-0.91;81.28
31082;BME280;17737;52.586;13.284;2023-02-28T02:41:35;102677.09;;;-0.65;80.99
31082;BME280;17737;52.586;13.284;2023-02-28T02:44:13;102674.78;;;-0.48;80.46
31082;BME280;17737;52.586;13.284;2023-02-28T02:46:51;102678.31;;;-0.49;79.68
31082;BME280;17737;52.586;13.284;2023-02-28T02:49:28;102675.34;;;-0.66;80.08
31082;BME280;17737;52.586;13.284;2023-02-28T02:52:04;102672.69;;;-0.65;80.20
31082;BME280;17737;52.586;13.284;2023-02-28T02:54:37;102667.78;;;-0.77;80.50
31082;BME280;17737;52.586;13.284;2023-02-28T02:57:12;102673.91;;;-1.02;81.28
31082;BME280;17737;52.586;13.284;2023-02-28T02:59:46;102671.38;;;-1.07;81.80
31082;BME280;17737;52.586;13.284;2023-02-28T03:02:17;102667.75;;;-1.03;81.66
31082;BME280;17737;52.586;13.284;2023-02-28T03:04:51;102676.50;;;-1.01;81.55
31082;BME280;17737;52.586;13.284;2023-02-28T03:07:28;102660.63;;;-1.01;81.55
31082;BME280;17737;52.586;13.284;2023-02-28T03:09:57;102680.94;;;-1.01;81.39
31082;BME280;17737;52.586;13.284;2023-02-28T03:12:38;102669.66;;;-1.08;81.90
31082;BME280;17737;52.586;13.284;2023-02-28T03:15:21;102672.16;;;-1.03;81.50
31082;BME280;17737;52.586;13.284;2023-02-28T03:18:02;102679.28;;;-1.05;81.62
31082;BME280;17737;52.586;13.284;2023-02-28T03:20:41;102676.19;;;-0.90;80.60
31082;BME280;17737;52.586;13.284;2023-02-28T03:23:17;102679.44;;;-1.10;81.27
31082;BME280;17737;52.586;13.284;2023-02-28T03:25:56;102686.50;;;-1.10;81.39
31082;BME280;17737;52.586;13.284;2023-02-28T03:28:32;102681.25;;;-1.12;81.37
31082;BME280;17737;52.586;13.284;2023-02-28T03:31:16;102683.56;;;-1.01;80.80
31082;BME280;17737;52.586;13.284;2023-02-28T03:33:50;102687.13;;;-1.02;80.95
31082;BME280;17737;52.586;13.284;2023-02-28T03:36:25;102683.84;;;-1.10;81.07
31082;BME280;17737;52.586;13.284;2023-02-28T03:38:59;102684.88;;;-1.14;81.42
31082;BME280;17737;52.586;13.284;2023-02-28T03:41:36;102686.91;;;-1.24;81.56
31082;BME280;17737;52.586;13.284;2023-02-28T03:44:12;102691.50;;;-1.01;81.13
31082;BME280;17737;52.586;13.284;2023-02-28T03:46:52;102688.41;;;-1.15;81.68
31082;BME280;17737;52.586;13.284;2023-02-28T03:49:30;102690.22;;;-1.16;81.36
31082;BME280;17737;52.586;13.284;2023-02-28T03:52:04;102688.84;;;-1.29;81.66
31082;BME280;17737;52.586;13.284;2023-02-28T03:54:42;102690.03;;;-1.39;82.33
31082;BME280;17737;52.586;13.284;2023-02-28T03:57:20;102695.81;;;-1.27;82.45
31082;BME280;17737;52.586;13.284;2023-02-28T03:59:57;102698.31;;;-1.22;82.53
31082;BME280;17737;52.586;13.284;2023-02-28T04:02:30;102698.25;;;-1.21;82.21
31082;BME280;17737;52.586;13.284;2023-02-28T04:04:59;102688.97;;;-1.34;82.36
31082;BME280;17737;52.586;13.284;2023-02-28T04:07:29;102701.63;;;-1.45;82.79
31082;BME280;17737;52.586;13.284;2023-02-28T04:09:58;102693.03;;;-1.51;82.80
31082;BME280;17737;52.586;13.284;2023-02-28T04:12:26;102694.84;;;-1.53;83.37
31082;BME280;17737;52.586;13.284;2023-02-28T04:14:54;102692.53;;;-1.64;83.57
31082;BME280;17737;52.586;13.284;2023-02-28T04:17:22;102695.03;;;-1.59;83.43
31082;BME280;17737;52.586;13.284;2023-02-28T04:19:50;102701.19;;;-1.59;83.33
31082;BME280;17737;52.586;13.284;2023-02-28T04:22:18;102691.63;;;-1.34;82.84
31082;BME280;17737;52.586;13.284;2023-02-28T04:24:46;102696.09;;;-1.36;82.36
31082;BME280;17737;52.586;13.284;2023-02-28T04:27:15;102699.03;;;-1.46;82.37
31082;BME280;17737;52.586;13.284;2023-02-28T04:29:43;102701.63;;;-1.45;82.84
31082;BME280;17737;52.586;13.284;2023-02-28T04:32:11;102705.16;;;-1.44;82.69
31082;BME280;17737;52.586;13.284;2023-02-28T04:34:40;102704.53;;;-1.52;82.82
31082;BME280;17737;52.586;13.284;2023-02-28T04:37:08;102700.88;;;-1.48;83.09
31082;BME280;17737;52.586;13.284;2023-02-28T04:39:40;102708.88;;;-1.51;82.75
31082;BME280;17737;52.586;13.284;2023-02-28T04:42:09;102702.91;;;-1.58;82.93
31082;BME280;17737;52.586;13.284;2023-02-28T04:44:38;102697.31;;;-1.47;82.65
31082;BME280;17737;52.586;13.284;2023-02-28T04:47:06;102708.94;;;-1.53;82.81
31082;BME280;17737;52.586;13.284;2023-02-28T04:49:35;102703.34;;;-1.73;83.30
31082;BME280;17737;52.586;13.284;2023-02-28T04:52:03;102707.75;;;-1.73;83.75
31082;BME280;17737;52.586;13.284;2023-02-28T04:54:32;102708.13;;;-1.87;84.05
31082;BME280;17737;52.586;13.284;2023-02-28T04:57:00;102700.94;;;-1.82;84.37
31082;BME280;17737;52.586;13.284;2023-02-28T04:59:28;102708.03;;;-1.82;84.18
31082;BME280;17737;52.586;13.284;2023-02-28T05:01:57;102704.53;;;-1.83;84.21
31082;BME280;17737;52.586;13.284;2023-02-28T05:04:25;102715.00;;;-1.80;84.27
31082;BME280;17737;52.586;13.284;2023-02-28T05:06:53;102713.28;;;-1.81;84.27
31082;BME280;17737;52.586;13.284;2023-02-28T05:09:21;102716.03;;;-1.85;84.58
31082;BME280;17737;52.586;13.284;2023-02-28T05:11:49;102715.09;;;-1.83;84.60
31082;BME280;17737;52.586;13.284;2023-02-28T05:14:17;102719.94;;;-1.68;84.18
31082;BME280;17737;52.586;13.284;2023-02-28T05:16:45;102721.66;;;-1.67;84.03
31082;BME280;17737;52.586;13.284;2023-02-28T05:19:14;102721.50;;;-1.61;83.75
31082;BME280;17737;52.586;13.284;2023-02-28T05:21:49;102716.75;;;-1.50;83.53
31082;BME280;17737;52.586;13.284;2023-02-28T05:24:20;102722.38;;;-1.60;83.39
31082;BME280;17737;52.586;13.284;2023-02-28T05:26:51;102727.88;;;-1.68;83.62
31082;BME280;17737;52.586;13.284;2023-02-28T05:29:20;102727.63;;;-1.59;83.31
31082;BME280;17737;52.586;13.284;2023-02-28T05:31:48;102727.13;;;-1.73;83.47
31082;BME280;17737;52.586;13.284;2023-02-28T05:34:18;102729.59;;;-1.67;83.50
31082;BME280;17737;52.586;13.284;2023-02-28T05:36:46;102729.81;;;-1.74;83.16
31082;BME280;17737;52.586;13.284;2023-02-28T05:39:14;102723.06;;;-1.84;83.62
31082;BME280;17737;52.586;13.284;2023-02-28T05:41:43;102731.91;;;-1.87;83.83
31082;BME280;17737;52.586;13.284;2023-02-28T05:44:11;102730.38;;;-1.95;83.88
31082;BME280;17737;52.586;13.284;2023-02-28T05:46:39;102726.81;;;-1.93;83.94
31082;BME280;17737;52.586;13.284;2023-02-28T05:49:07;102740.13;;;-1.96;83.64
31082;BME280;17737;52.586;13.284;2023-02-28T05:51:37;102746.03;;;-1.88;83.96
31082;BME280;17737;52.586;13.284;2023-02-28T05:54:06;102746.88;;;-1.86;83.80
31082;BME280;17737;52.586;13.284;2023-02-28T05:56:34;102751.88;;;-1.77;83.35
31082;BME280;17737;52.586;13.284;2023-02-28T05:59:05;102743.13;;;-1.79;83.36
31082;BME280;17737;52.586;13.284;2023-02-28T06:01:35;102741.59;;;-1.86;83.22
31082;BME280;17737;52.586;13.284;2023-02-28T06:04:06;102749.75;;;-1.95;83.51
31082;BME280;17737;52.586;13.284;2023-02-28T06:06:52;102740.06;;;-1.94;83.83
31082;BME280;17737;52.586;13.284;2023-02-28T06:09:20;102746.31;;;-1.98;84.03
31082;BME280;17737;52.586;13.284;2023-02-28T06:11:48;102754.13;;;-1.94;84.06
31082;BME280;17737;52.586;13.284;2023-02-28T06:14:17;102755.97;;;-1.96;84.17
31082;BME280;17737;52.586;13.284;2023-02-28T06:16:47;102754.16;;;-1.95;84.35
31082;BME280;17737;52.586;13.284;2023-02-28T06:19:15;102748.00;;;-1.94;84.39
31082;BME280;17737;52.586;13.284;2023-02-28T06:21:43;102755.69;;;-1.87;84.06
31082;BME280;17737;52.586;13.284;2023-02-28T06:24:13;102752.94;;;-1.82;83.72
31082;BME280;17737;52.586;13.284;2023-02-28T06:26:40;102754.59;;;-1.78;83.58
31082;BME280;17737;52.586;13.284;2023-02-28T06:29:08;102756.34;;;-1.79;83.65
31082;BME280;17737;52.586;13.284;2023-02-28T06:31:36;102759.81;;;-1.77;83.46
31082;BME280;17737;52.586;13.284;2023-02-28T06:34:05;102759.50;;;-1.65;83.19
31082;BME280;17737;52.586;13.284;2023-02-28T06:36:33;102767.09;;;-1.53;82.81
31082;BME280;17737;52.586;13.284;2023-02-28T06:39:01;102778.28;;;-1.43;82.11
31082;BME280;17737;52.586;13.284;2023-02-28T06:41:30;102780.00;;;-1.42;81.77
31082;BME280;17737;52.586;13.284;2023-02-28T06:44:20;102773.00;;;-1.43;82.06
31082;BME280;17737;52.586;13.284;2023-02-28T06:46:49;102779.31;;;-1.49;82.00
31082;BME280;17737;52.586;13.284;2023-02-28T06:49:18;102777.31;;;-1.41;81.96
31082;BME280;17737;52.586;13.284;2023-02-28T06:51:46;102787.72;;;-1.35;81.78
31082;BME280;17737;52.586;13.284;2023-02-28T06:54:15;102782.06;;;-1.23;81.45
31082;BME280;17737;52.586;13.284;2023-02-28T06:56:44;102783.72;;;-1.18;81.06
31082;BME280;17737;52.586;13.284;2023-02-28T06:59:13;102787.00;;;-1.10;80.37
31082;BME280;17737;52.586;13.284;2023-02-28T07:01:41;102788.28;;;-0.94;80.37
31082;BME280;17737;52.586;13.284;2023-02-28T07:04:09;102793.59;;;-0.94;80.46
31082;BME280;17737;52.586;13.284;2023-02-28T07:06:37;102794.47;;;-0.94;80.17
31082;BME280;17737;52.586;13.284;2023-02-28T07:09:05;102797.22;;;-0.98;80.11
31082;BME280;17737;52.586;13.284;2023-02-28T07:11:33;102792.53;;;-0.89;80.10
31082;BME280;17737;52.586;13.284;2023-02-28T07:14:02;102786.09;;;-0.80;79.62
31082;BME280;17737;52.586;13.284;2023-02-28T07:16:30;102791.88;;;-0.68;79.28
31082;BME280;17737;52.586;13.284;2023-02-28T07:18:58;102789.63;;;-0.52;78.58
31082;BME280;17737;52.586;13.284;2023-02-28T07:21:26;102799.22;;;-0.48;78.19
31082;BME280;17737;52.586;13.284;2023-02-28T07:23:55;102795.69;;;-0.49;78.78
31082;BME280;17737;52.586;13.284;2023-02-28T07:26:24;102796.41;;;-0.44;77.97
31082;BME280;17737;52.586;13.284;2023-02-28T07:28:52;102796.88;;;-0.31;77.72
31082;BME280;17737;52.586;13.284;2023-02-28T07:31:22;102789.69;;;0.00;76.54
31082;BME280;17737;52.586;13.284;2023-02-28T07:33:49;102794.97;;;0.00;75.94
31082;BME280;17737;52.586;13.284;2023-02-28T07:36:17;102787.22;;;-0.06;76.68
31082;BME280;17737;52.586;13.284;2023-02-28T07:38:46;102799.16;;;-0.19;76.75
31082;BME280;17737;52.586;13.284;2023-02-28T07:41:17;102794.03;;;0.01;76.57
31082;BME280;17737;52.586;13.284;2023-02-28T07:43:47;102797.00;;;0.18;75.85
31082;BME280;17737;52.586;13.284;2023-02-28T07:46:16;102795.25;;;0.17;75.83
31082;BME280;17737;52.586;13.284;2023-02-28T07:48:49;102806.63;;;0.45;75.38
31082;BME280;17737;52.586;13.284;2023-02-28T07:51:17;102797.22;;;0.61;74.26
31082;BME280;17737;52.586;13.284;2023-02-28T07:53:45;102805.31;;;0.57;74.26
31082;BME280;17737;52.586;13.284;2023-02-28T07:56:12;102801.22;;;0.48;74.79
31082;BME280;17737;52.586;13.284;2023-02-28T07:58:40;102798.06;;;0.62;73.82
31082;BME280;17737;52.586;13.284;2023-02-28T08:01:09;102797.09;;;0.64;74.29
31082;BME280;17737;52.586;13.284;2023-02-28T08:03:39;102804.25;;;0.85;73.50
31082;BME280;17737;52.586;13.284;2023-02-28T08:06:14;102803.34;;;0.86;73.35
31082;BME280;17737;52.586;13.284;2023-02-28T08:08:44;102798.72;;;1.14;71.88
31082;BME280;17737;52.586;13.284;2023-02-28T08:11:13;102800.56;;;1.12;71.75
31082;BME280;17737;52.586;13.284;2023-02-28T08:13:42;102806.00;;;1.33;69.83
31082;BME280;17737;52.586;13.284;2023-02-28T08:16:11;102801.00;;;1.47;68.86
31082;BME280;17737;52.586;13.284;2023-02-28T08:18:43;102799.69;;;1.57;67.65
31082;BME280;17737;52.586;13.284;2023-02-28T08:21:13;102798.41;;;1.45;67.88
31082;BME280;17737;52.586;13.284;2023-02-28T08:23:41;102795.59;;;1.50;67.20
31082;BME280;17737;52.586;13.284;2023-02-28T08:26:09;102805.34;;;1.71;64.75
31082;BME280;17737;52.586;13.284;2023-02-28T08:28:37;102800.56;;;1.57;65.22
31082;BME280;17737;52.586;13.284;2023-02-28T08:31:09;102791.97;;;1.72;64.79
31082;BME280;17737;52.586;13.284;2023-02-28T08:33:40;102789.91;;;1.80;61.86
31082;BME280;17737;52.586;13.284;2023-02-28T08:36:09;102799.28;;;1.89;59.20
31082;BME280;17737;52.586;13.284;2023-02-28T08:38:38;102799.38;;;2.07;58.99
31082;BME280;17737;52.586;13.284;2023-02-28T08:41:07;102805.38;;;2.32;56.30
31082;BME280;17737;52.586;13.284;2023-02-28T08:43:39;102807.31;;;2.29;55.54
31082;BME280;17737;52.586;13.284;2023-02-28T08:46:08;102799.44;;;2.66;55.69
31082;BME280;17737;52.586;13.284;2023-02-28T08:48:40;102803.81;;;2.49;55.72
31082;BME280;17737;52.586;13.284;2023-02-28T08:51:10;102799.47;;;2.46;54.99
31082;BME280;17737;52.586;13.284;2023-02-28T08:53:41;102805.81;;;2.82;53.03
31082;BME280;17737;52.586;13.284;2023-02-28T08:56:10;102801.69;;;2.75;52.38
31082;BME280;17737;52.586;13.284;2023-02-28T08:58:40;102800.22;;;2.88;51.51
31082;BME280;17737;52.586;13.284;2023-02-28T09:01:09;102803.84;;;3.24;49.65
31082;BME280;17737;52.586;13.284;2023-02-28T09:03:40;102805.47;;;3.08;49.82
31082;BME280;17737;52.586;13.284;2023-02-28T09:06:09;102805.84;;;3.01;49.08
31082;BME280;17737;52.586;13.284;2023-02-28T09:08:40;102810.25;;;3.39;47.90
31082;BME280;17737;52.586;13.284;2023-02-28T09:11:09;102807.09;;;3.12;48.39
31082;BME280;17737;52.586;13.284;2023-02-28T09:13:37;102808.22;;;3.07;48.60
31082;BME280;17737;52.586;13.284;2023-02-28T09:16:07;102802.31;;;3.37;48.33
31082;BME280;17737;52.586;13.284;2023-02-28T09:18:38;102805.88;;;3.38;48.22
31082;BME280;17737;52.586;13.284;2023-02-28T09:21:08;102803.53;;;3.67;46.00
31082;BME280;17737;52.586;13.284;2023-02-28T09:23:38;102791.56;;;3.76;45.82
31082;BME280;17737;52.586;13.284;2023-02-28T09:26:07;102801.75;;;3.85;45.73
31082;BME280;17737;52.586;13.284;2023-02-28T09:28:40;102804.88;;;3.40;46.65
31082;BME280;17737;52.586;13.284;2023-02-28T09:31:12;102797.72;;;3.41;46.65
31082;BME280;17737;52.586;13.284;2023-02-28T09:33:41;102796.19;;;3.35;46.95
31082;BME280;17737;52.586;13.284;2023-02-28T09:36:09;102806.72;;;3.57;47.31
31082;BME280;17737;52.586;13.284;2023-02-28T09:38:37;102796.38;;;4.04;45.53
31082;BME280;17737;52.586;13.284;2023-02-28T09:41:14;102804.94;;;3.75;46.90
31082;BME280;17737;52.586;13.284;2023-02-28T09:43:45;102798.75;;;4.10;44.56
31082;BME280;17737;52.586;13.284;2023-02-28T09:46:27;102800.09;;;3.65;46.17
31082;BME280;17737;52.586;13.284;2023-02-28T09:49:00;102801.88;;;4.01;45.04
31082;BME280;17737;52.586;13.284;2023-02-28T09:51:37;102796.63;;;3.99;45.41
31082;BME280;17737;52.586;13.284;2023-02-28T09:54:16;102807.22;;;3.65;46.48
31082;BME280;17737;52.586;13.284;2023-02-28T09:56:50;102807.78;;;3.72;46.38
31082;BME280;17737;52.586;13.284;2023-02-28T09:59:32;102801.81;;;4.19;45.01
31082;BME280;17737;52.586;13.284;2023-02-28T10:02:41;102800.81;;;4.39;44.48
31082;BME280;17737;52.586;13.284;2023-02-28T10:05:23;102804.19;;;4.25;44.61
31082;BME280;17737;52.586;13.284;2023-02-28T10:08:02;102801.97;;;4.16;44.45
31082;BME280;17737;52.586;13.284;2023-02-28T10:10:38;102802.59;;;4.04;44.56
31082;BME280;17737;52.586;13.284;2023-02-28T10:13:19;102809.19;;;4.14;44.88
31082;BME280;17737;52.586;13.284;2023-02-28T10:15:55;102810.34;;;4.09;44.49
31082;BME280;17737;52.586;13.284;2023-02-28T10:18:34;102809.06;;;3.99;44.79
31082;BME280;17737;52.586;13.284;2023-02-28T10:21:17;102819.00;;;4.31;44.11
31082;BME280;17737;52.586;13.284;2023-02-28T10:23:51;102812.91;;;4.29;43.93
31082;BME280;17737;52.586;13.284;2023-02-28T10:26:26;102799.22;;;4.18;44.52
31082;BME280;17737;52.586;13.284;2023-02-28T10:28:59;102807.22;;;4.52;44.09
31082;BME280;17737;52.586;13.284;2023-02-28T10:31:29;102809.09;;;4.50;43.93
31082;BME280;17737;52.586;13.284;2023-02-28T10:33:59;102811.59;;;4.53;43.98
31082;BME280;17737;52.586;13.284;2023-02-28T10:36:28;102806.53;;;4.48;43.71
31082;BME280;17737;52.586;13.284;2023-02-28T10:38:56;102809.09;;;4.33;45.29
31082;BME280;17737;52.586;13.284;2023-02-28T10:41:28;102803.78;;;4.33;44.69
31082;BME280;17737;52.586;13.284;2023-02-28T10:44:17;102800.47;;;4.28;44.69
31082;BME280;17737;52.586;13.284;2023-02-28T10:46:49;102801.41;;;4.61;43.45
31082;BME280;17737;52.586;13.284;2023-02-28T10:49:22;102803.47;;;4.39;43.81
31082;BME280;17737;52.586;13.284;2023-02-28T10:51:56;102803.47;;;4.56;44.38
31082;BME280;17737;52.586;13.284;2023-02-28T10:54:30;102798.72;;;4.78;43.27
31082;BME280;17737;52.586;13.284;2023-02-28T10:57:16;102796.22;;;4.75;43.25
31082;BME280;17737;52.586;13.284;2023-02-28T10:59:50;102799.34;;;4.83;41.87
31082;BME280;17737;52.586;13.284;2023-02-28T11:02:31;102788.53;;;4.52;42.77
31082;BME280;17737;52.586;13.284;2023-02-28T11:05:02;102787.06;;;4.79;42.60
31082;BME280;17737;52.586;13.284;2023-02-28T11:07:30;102792.91;;;4.70;43.01
31082;BME280;17737;52.586;13.284;2023-02-28T11:10:18;102790.38;;;4.84;42.44
31082;BME280;17737;52.586;13.284;2023-02-28T11:12:48;102779.84;;;4.81;42.37
31082;BME280;17737;52.586;13.284;2023-02-28T11:15:23;102776.44;;;4.45;43.05
31082;BME280;17737;52.586;13.284;2023-02-28T11:17:54;102770.63;;;4.71;42.68
31082;BME280;17737;52.586;13.284;2023-02-28T11:20:27;102767.16;;;5.02;42.51
31082;BME280;17737;52.586;13.284;2023-02-28T11:22:58;102766.75;;;4.76;43.07
31082;BME280;17737;52.586;13.284;2023-02-28T11:25:31;102764.97;;;4.60;43.24
31082;BME280;17737;52.586;13.284;2023-02-28T11:28:02;102762.34;;;4.75;43.83
31082;BME280;17737;52.586;13.284;2023-02-28T11:30:37;102770.44;;;5.07;42.37
31082;BME280;17737;52.586;13.284;2023-02-28T11:33:22;102761.16;;;5.29;42.34
31082;BME280;17737;52.586;13.284;2023-02-28T11:36:04;102753.22;;;5.12;42.91
31082;BME280;17737;52.586;13.284;2023-02-28T11:38:38;102744.06;;;5.47;40.76
31082;BME280;17737;52.586;13.284;2023-02-28T11:41:20;102757.13;;;4.89;41.83
31082;BME280;17737;52.586;13.284;2023-02-28T11:44:18;102761.28;;;5.26;41.41
31082;BME280;17737;52.586;13.284;2023-02-28T11:47:00;102757.09;;;5.22;41.38
31082;BME280;17737;52.586;13.284;2023-02-28T11:49:43;102753.28;;;4.95;43.17
31082;BME280;17737;52.586;13.284;2023-02-28T11:52:21;102765.78;;;5.10;42.75
31082;BME280;17737;52.586;13.284;2023-02-28T11:55:13;102762.78;;;5.47;41.01
31082;BME280;17737;52.586;13.284;2023-02-28T11:58:16;102764.75;;;5.28;40.44
31082;BME280;17737;52.586;13.284;2023-02-28T12:01:03;102762.00;;;5.14;41.53
31082;BME280;17737;52.586;13.284;2023-02-28T12:03:56;102763.53;;;5.18;40.57
31082;BME280;17737;52.586;13.284;2023-02-28T12:06:36;102760.75;;;5.04;41.99
31082;BME280;17737;52.586;13.284;2023-02-28T12:09:24;102754.38;;;4.91;41.31
31082;BME280;17737;52.586;13.284;2023-02-28T12:12:21;102750.47;;;5.29;41.91
31082;BME280;17737;52.586;13.284;2023-02-28T12:15:24;102741.56;;;5.13;41.47
31082;BME280;17737;52.586;13.284;2023-02-28T12:18:20;102744.22;;;5.13;41.64
31082;BME280;17737;52.586;13.284;2023-02-28T12:21:07;102745.00;;;5.15;41.86
31082;BME280;17737;52.586;13.284;2023-02-28T12:23:57;102747.00;;;5.27;41.15
31082;BME280;17737;52.586;13.284;2023-02-28T12:26:47;102742.94;;;5.05;41.54
31082;BME280;17737;52.586;13.284;2023-02-28T12:29:23;102739.31;;;5.21;41.52
31082;BME280;17737;52.586;13.284;2023-02-28T12:31:58;102733.13;;;5.21;41.95
31082;BME280;17737;52.586;13.284;2023-02-28T12:34:36;102722.59;;;5.18;42.24
31082;BME280;17737;52.586;13.284;2023-02-28T12:37:14;102713.19;;;5.42;42.08
31082;BME280;17737;52.586;13.284;2023-02-28T12:39:51;102708.13;;;5.82;40.92
31082;BME280;17737;52.586;13.284;2023-02-28T12:42:28;102710.09;;;5.49;41.55
31082;BME280;17737;52.586;13.284;2023-02-28T12:45:03;102714.94;;;5.43;41.48
31082;BME280;17737;52.586;13.284;2023-02-28T12:47:44;102694.84;;;5.36;42.39
31082;BME280;17737;52.586;13.284;2023-02-28T12:50:13;102694.56;;;5.40;41.79
31082;BME280;17737;52.586;13.284;2023-02-28T12:52:50;102697.81;;;5.61;42.47
31082;BME280;17737;52.586;13.284;2023-02-28T12:55:31;102694.72;;;5.53;41.70
31082;BME280;17737;52.586;13.284;2023-02-28T12:58:12;102681.94;;;5.73;41.71
31082;BME280;17737;52.586;13.284;2023-02-28T13:04:07;102682.47;;;5.64;41.08
31082;BME280;17737;52.586;13.284;2023-02-28T13:07:10;102675.41;;;5.63;41.34
31082;BME280;17737;52.586;13.284;2023-02-28T13:09:55;102667.00;;;5.69;41.44
31082;BME280;17737;52.586;13.284;2023-02-28T13:12:25;102665.81;;;5.59;41.01
31082;BME280;17737;52.586;13.284;2023-02-28T13:15:04;102667.41;;;5.77;40.27
31082;BME280;17737;52.586;13.284;2023-02-28T13:17:39;102670.53;;;5.99;40.64
31082;BME280;17737;52.586;13.284;2023-02-28T13:20:14;102674.78;;;6.03;39.73
31082;BME280;17737;52.586;13.284;2023-02-28T13:22:47;102674.84;;;5.72;40.13
31082;BME280;17737;52.586;13.284;2023-02-28T13:28:57;102673.22;;;5.70;40.00
31082;BME280;17737;52.586;13.284;2023-02-28T13:31:27;102668.81;;;5.69;40.93